Time;durP1;ratioP1;P1;durP2;ratioP2;P2;SDS_P1;SDS_P2;PMS_P1;PMS_P2;Temp;Humidity;BMP_temperature;BMP_pressure;BME280_temperature;BME280_humidity;BME280_pressure;Samples;Min_cycle;Max_cycle;Signal;HPM_P1;HPM_P2
2021/11/28 00:00:27;;;;;;;;;1.25;1.00;;;;;5.94;97.78;99398.13;5025824;28;45813;-60
2021/11/28 00:02:54;;;;;;;;;0.50;0.00;;;;;5.94;96.59;99392.13;5021319;28;45535;-61
2021/11/28 00:05:22;;;;;;;;;2.75;2.00;;;;;5.94;97.39;99389.53;5024107;28;45336;-61
2021/11/28 00:08:04;;;;;;;;;3.00;2.00;;;;;5.95;97.12;99391.22;5018749;28;46135;-61
2021/11/28 00:10:57;;;;;;;;;2.50;2.00;;;;;5.98;96.79;99385.97;5011228;28;45309;-61
2021/11/28 00:13:32;;;;;;;;;1.00;1.00;;;;;5.99;96.29;99398.81;5017619;28;45526;-61
2021/11/28 00:16:00;;;;;;;;;2.00;2.00;;;;;5.98;96.64;99386.81;5013351;28;47294;-61
2021/11/28 00:18:26;;;;;;;;;1.00;1.00;;;;;5.95;96.62;99389.47;5020852;28;46278;-60
2021/11/28 00:20:52;;;;;;;;;1.00;1.00;;;;;5.95;96.46;99407.53;5020464;28;45385;-61
2021/11/28 00:23:17;;;;;;;;;3.25;1.00;;;;;5.95;96.05;99389.47;5021044;28;45295;-61
2021/11/28 00:25:43;;;;;;;;;2.50;1.50;;;;;5.95;96.14;99397.22;5020355;28;45389;-61
2021/11/28 00:28:12;;;;;;;;;6.50;4.00;;;;;5.92;96.47;99384.44;5020692;28;46176;-60
2021/11/28 00:30:38;;;;;;;;;4.50;4.50;;;;;6.02;96.67;99406.47;5020373;28;45922;-60
2021/11/28 00:33:03;;;;;;;;;5.25;4.00;;;;;5.97;95.18;99377.38;5020860;28;45385;-60
2021/11/28 00:35:28;;;;;;;;;4.50;1.00;;;;;6.01;95.21;99389.31;5020612;28;45304;-61
2021/11/28 00:37:54;;;;;;;;;2.75;2.75;;;;;6.03;96.08;99381.53;5020557;28;46193;-61
2021/11/28 00:40:19;;;;;;;;;1.25;1.25;;;;;6.04;96.04;99396.13;5020271;28;45469;-61
2021/11/28 00:42:45;;;;;;;;;1.00;1.00;;;;;6.01;95.12;99396.22;5020443;28;45477;-61
2021/11/28 00:45:11;;;;;;;;;2.25;2.00;;;;;5.98;94.74;99380.81;5018008;28;45545;-61
2021/11/28 00:47:36;;;;;;;;;4.00;2.00;;;;;5.99;94.10;99385.91;5019664;28;45439;-60
2021/11/28 00:50:17;;;;;;;;;1.00;1.00;;;;;6.01;94.65;99388.47;5020478;28;45372;-61
2021/11/28 00:52:43;;;;;;;;;1.00;1.00;;;;;6.01;94.13;99393.63;5029758;28;45442;-61
2021/11/28 00:55:10;;;;;;;;;1.00;1.00;;;;;6.03;94.24;99404.75;5018039;28;45609;-61
2021/11/28 00:57:36;;;;;;;;;3.00;3.00;;;;;6.04;94.87;99406.44;5018091;28;45508;-60
2021/11/28 01:00:05;;;;;;;;;1.75;1.75;;;;;6.04;95.15;99396.13;5017519;28;45454;-60
2021/11/28 01:02:31;;;;;;;;;6.50;1.00;;;;;6.02;93.49;99400.47;5017933;28;45352;-60
2021/11/28 01:04:56;;;;;;;;;0.50;0.00;;;;;6.01;94.64;99411.69;5017803;28;45313;-60
2021/11/28 01:07:22;;;;;;;;;2.75;2.00;;;;;6.04;95.52;99419.31;5017836;28;46538;-60
2021/11/28 01:09:47;;;;;;;;;4.00;1.00;;;;;6.02;93.74;99410.78;5017885;28;45659;-60
2021/11/28 01:12:13;;;;;;;;;1.75;1.00;;;;;6.02;93.76;99406.47;5018438;28;45413;-60
2021/11/28 01:14:39;;;;;;;;;1.00;1.00;;;;;6.01;94.47;99409.09;5017626;28;45726;-60
2021/11/28 01:17:05;;;;;;;;;1.00;1.00;;;;;6.04;93.47;99412.44;5017428;28;45817;-60
2021/11/28 01:19:30;;;;;;;;;1.00;1.00;;;;;6.02;92.88;99418.53;5017084;28;45940;-60
2021/11/28 01:22:03;;;;;;;;;5.50;2.50;;;;;6.05;93.96;99416.69;5017609;28;45349;-60
2021/11/28 01:24:29;;;;;;;;;1.75;1.00;;;;;6.07;93.37;99432.97;5017230;28;45588;-61
2021/11/28 01:26:55;;;;;;;;;1.75;1.00;;;;;6.04;93.44;99435.63;5017256;28;45705;-60
2021/11/28 01:29:20;;;;;;;;;0.00;0.00;;;;;6.04;92.39;99434.78;5019534;28;45297;-60
2021/11/28 01:31:46;;;;;;;;;0.00;0.00;;;;;6.04;93.01;99427.91;5019779;28;45279;-60
2021/11/28 01:34:11;;;;;;;;;1.75;1.75;;;;;6.08;93.86;99438.97;5019662;28;45534;-60
2021/11/28 01:36:37;;;;;;;;;2.00;1.00;;;;;6.08;93.00;99437.22;5019764;28;45390;-60
2021/11/28 01:39:09;;;;;;;;;2.25;0.50;;;;;6.12;93.21;99437.13;5019260;28;45352;-60
2021/11/28 01:41:35;;;;;;;;;2.00;1.00;;;;;6.14;92.55;99446.50;5019543;28;45312;-60
2021/11/28 01:44:01;;;;;;;;;2.75;0.00;;;;;6.10;91.72;99448.34;5019437;28;45367;-59
2021/11/28 01:46:27;;;;;;;;;1.00;1.00;;;;;6.13;91.92;99455.13;5018924;28;46265;-59
2021/11/28 01:48:54;;;;;;;;;3.00;0.00;;;;;6.14;92.86;99459.41;5019562;28;45339;-59
2021/11/28 01:51:19;;;;;;;;;1.00;1.00;;;;;6.16;92.54;99454.19;5029080;28;45254;-59
2021/11/28 01:53:47;;;;;;;;;1.00;1.00;;;;;6.17;91.94;99466.19;5019236;28;45274;-59
2021/11/28 01:56:13;;;;;;;;;1.50;1.50;;;;;6.13;91.34;99452.56;5019543;28;45427;-59
2021/11/28 01:58:39;;;;;;;;;0.50;0.50;;;;;6.13;92.54;99457.72;5019251;28;45531;-59
2021/11/28 02:01:08;;;;;;;;;4.00;0.00;;;;;6.10;92.24;99468.13;5019301;28;45392;-60
2021/11/28 02:03:39;;;;;;;;;1.00;1.00;;;;;6.15;92.93;99471.41;5019315;28;45402;-60
2021/11/28 02:06:05;;;;;;;;;2.00;2.00;;;;;6.17;92.59;99469.63;5019376;28;47195;-62
2021/11/28 02:08:32;;;;;;;;;1.50;1.50;;;;;6.17;92.30;99469.63;5018901;28;45456;-62
2021/11/28 02:10:57;;;;;;;;;3.00;0.75;;;;;6.14;91.79;99482.63;5019363;28;45491;-61
2021/11/28 02:13:24;;;;;;;;;1.50;1.50;;;;;6.09;91.27;99472.44;5019262;28;45246;-61
2021/11/28 02:15:50;;;;;;;;;1.00;1.00;;;;;6.07;92.41;99496.59;5018846;28;45497;-62
2021/11/28 02:18:15;;;;;;;;;1.25;0.25;;;;;6.04;92.45;99478.63;5019324;28;45779;-62
2021/11/28 02:20:48;;;;;;;;;1.00;1.00;;;;;6.05;92.28;99486.34;5019103;28;45872;-61
2021/11/28 02:23:14;;;;;;;;;2.00;2.00;;;;;6.07;92.15;99494.03;5019287;28;45234;-61
2021/11/28 02:25:41;;;;;;;;;3.25;1.00;;;;;6.04;92.29;99483.78;5018857;28;46030;-61
2021/11/28 02:28:07;;;;;;;;;0.75;0.75;;;;;6.00;92.24;99489.91;5019214;28;45245;-61
2021/11/28 02:30:32;;;;;;;;;0.50;0.00;;;;;5.98;92.39;99487.38;5019157;28;45356;-61
2021/11/28 02:32:58;;;;;;;;;3.00;1.25;;;;;6.03;92.27;99497.59;5005156;28;45534;-61
2021/11/28 02:35:26;;;;;;;;;0.75;0.75;;;;;5.99;92.16;99486.47;5022416;28;47116;-61
2021/11/28 02:37:52;;;;;;;;;1.00;1.00;;;;;6.03;92.90;99487.25;5022531;28;45296;-61
2021/11/28 02:40:21;;;;;;;;;1.00;0.50;;;;;6.07;92.62;99494.03;5022216;28;45270;-61
2021/11/28 02:42:49;;;;;;;;;2.00;1.00;;;;;6.04;92.23;99494.13;5022416;28;45233;-61
2021/11/28 02:45:16;;;;;;;;;4.50;1.00;;;;;6.04;92.34;99488.94;5021235;28;47047;-60
2021/11/28 02:47:41;;;;;;;;;1.00;1.00;;;;;6.06;92.10;99492.34;5022561;28;45483;-60
2021/11/28 02:50:09;;;;;;;;;1.25;1.25;;;;;6.05;92.30;99490.66;5022747;28;45289;-60
2021/11/28 02:52:35;;;;;;;;;2.75;2.00;;;;;6.06;92.85;99482.00;5028422;28;45287;-61
2021/11/28 02:55:01;;;;;;;;;1.00;1.00;;;;;6.07;92.39;99497.44;5020764;28;45592;-60
2021/11/28 02:57:27;;;;;;;;;0.25;0.25;;;;;6.08;92.65;99487.97;5019903;28;45347;-60
2021/11/28 02:59:53;;;;;;;;;2.00;2.00;;;;;6.08;92.43;99499.13;5019642;28;46108;-60
2021/11/28 03:02:18;;;;;;;;;1.25;1.00;;;;;6.09;92.40;99493.09;5019805;28;45487;-60
2021/11/28 03:04:44;;;;;;;;;0.00;0.00;;;;;6.08;92.27;99503.44;5019638;28;46081;-60
2021/11/28 03:07:15;;;;;;;;;0.75;0.75;;;;;6.04;91.82;99487.22;5020333;28;45438;-60
2021/11/28 03:09:40;;;;;;;;;0.00;0.00;;;;;6.03;92.17;99482.09;5019838;28;45380;-61
2021/11/28 03:12:06;;;;;;;;;2.00;0.50;;;;;6.06;92.24;99503.50;5002882;28;45294;-60
2021/11/28 03:14:31;;;;;;;;;1.00;1.00;;;;;6.02;92.00;99488.16;5019265;28;45398;-61
2021/11/28 03:16:56;;;;;;;;;2.00;1.00;;;;;6.03;92.52;99489.84;5019554;28;45544;-59
2021/11/28 03:19:22;;;;;;;;;0.50;0.50;;;;;6.02;92.28;99491.56;5019511;28;45414;-60
2021/11/28 03:21:49;;;;;;;;;1.00;1.00;;;;;5.99;91.51;99496.81;5019518;28;45431;-59
2021/11/28 03:24:14;;;;;;;;;2.75;1.00;;;;;5.99;92.41;99495.94;5018883;28;47046;-60
2021/11/28 03:26:41;;;;;;;;;1.50;0.00;;;;;6.01;92.97;99504.53;5019851;28;45776;-59
2021/11/28 03:29:19;;;;;;;;;0.75;0.75;;;;;6.00;92.33;99501.06;5021741;28;45373;-60
2021/11/28 03:31:51;;;;;;;;;1.25;1.00;;;;;6.00;92.63;99500.22;5021600;28;45412;-59
2021/11/28 03:34:18;;;;;;;;;2.00;1.00;;;;;6.01;92.60;99507.94;5021597;28;47615;-59
2021/11/28 03:36:51;;;;;;;;;0.00;0.00;;;;;5.97;92.08;99510.63;5021626;28;45226;-59
2021/11/28 03:39:20;;;;;;;;;1.00;1.00;;;;;5.95;92.88;99515.84;5033272;28;45372;-59
2021/11/28 03:41:48;;;;;;;;;0.00;0.00;;;;;5.96;92.97;99520.09;5003234;28;45537;-59
2021/11/28 03:44:13;;;;;;;;;0.25;0.00;;;;;5.92;91.93;99515.06;5021121;28;45374;-59
2021/11/28 03:46:39;;;;;;;;;2.00;2.00;;;;;5.94;92.49;99516.72;5020947;28;45400;-59
2021/11/28 03:49:04;;;;;;;;;2.25;1.50;;;;;5.92;92.33;99517.66;5021661;28;45234;-59
2021/11/28 03:51:30;;;;;;;;;1.25;1.25;;;;;5.90;92.36;99517.69;5014415;28;45506;-60
2021/11/28 03:53:55;;;;;;;;;1.00;1.00;;;;;5.89;92.53;99539.19;5021084;28;45354;-60
2021/11/28 03:56:21;;;;;;;;;0.75;0.75;;;;;5.89;92.93;99533.19;5021376;28;45363;-59
2021/11/28 03:58:46;;;;;;;;;3.25;1.00;;;;;5.90;92.29;99538.31;5020897;28;45542;-58
2021/11/28 04:01:14;;;;;;;;;2.00;0.00;;;;;5.92;92.51;99540.88;5021057;28;45262;-59
2021/11/28 04:03:39;;;;;;;;;2.25;0.00;;;;;5.85;92.27;99535.00;5021229;28;46806;-59
2021/11/28 04:06:05;;;;;;;;;1.00;1.00;;;;;5.86;92.28;99530.69;5021280;28;45385;-59
2021/11/28 04:08:31;;;;;;;;;1.00;1.00;;;;;5.89;92.83;99530.59;5021277;28;45175;-59
2021/11/28 04:10:56;;;;;;;;;2.00;1.00;;;;;5.91;92.52;99541.75;5020919;28;45238;-59
2021/11/28 04:13:22;;;;;;;;;1.00;1.00;;;;;5.88;92.43;99531.50;5021081;28;45295;-59
2021/11/28 04:15:47;;;;;;;;;0.00;0.00;;;;;5.91;92.85;99534.00;5020707;28;45245;-59
2021/11/28 04:18:13;;;;;;;;;2.00;0.00;;;;;5.89;92.25;99541.75;5021115;28;45280;-59
2021/11/28 04:20:38;;;;;;;;;0.75;0.75;;;;;5.88;92.23;99536.66;5020766;28;45537;-59
2021/11/28 04:23:04;;;;;;;;;1.50;1.50;;;;;5.92;92.64;99546.03;5020983;28;45401;-59
2021/11/28 04:25:29;;;;;;;;;3.00;1.75;;;;;5.93;92.42;99537.41;5020555;28;45412;-59
2021/11/28 04:27:55;;;;;;;;;3.25;0.00;;;;;5.96;92.85;99534.72;5020940;28;45301;-59
2021/11/28 04:30:21;;;;;;;;;1.25;1.25;;;;;5.94;92.48;99536.50;5020596;28;45448;-59
2021/11/28 04:32:46;;;;;;;;;0.25;0.25;;;;;5.94;92.68;99539.94;5020828;28;45268;-59
2021/11/28 04:35:12;;;;;;;;;1.00;1.00;;;;;5.90;93.40;99547.81;5020685;28;45340;-59
2021/11/28 04:37:38;;;;;;;;;2.00;2.00;;;;;5.86;93.53;99547.00;5021263;28;45495;-59
2021/11/28 04:40:06;;;;;;;;;0.75;0.00;;;;;5.85;94.30;99544.47;5020573;28;45418;-59
2021/11/28 04:42:31;;;;;;;;;2.00;2.00;;;;;5.80;94.59;99544.56;5020366;28;47546;-59
2021/11/28 04:44:56;;;;;;;;;1.00;1.00;;;;;5.79;94.61;99554.03;5020151;28;45195;-59
2021/11/28 04:47:23;;;;;;;;;1.00;0.25;;;;;5.75;94.84;99552.44;5020026;28;45237;-59
2021/11/28 04:49:48;;;;;;;;;0.50;0.50;;;;;5.74;95.14;99553.34;5020183;28;45442;-60
2021/11/28 04:52:14;;;;;;;;;0.00;0.00;;;;;5.73;95.68;99546.47;5013256;28;47502;-59
2021/11/28 04:54:40;;;;;;;;;1.50;1.00;;;;;5.73;94.87;99556.78;5019099;28;45507;-59
2021/11/28 04:57:06;;;;;;;;;2.25;1.00;;;;;5.74;95.07;99558.47;5020176;28;45350;-59
2021/11/28 04:59:31;;;;;;;;;0.50;0.50;;;;;5.72;95.43;99555.09;5020253;28;45635;-59
2021/11/28 05:01:57;;;;;;;;;1.00;0.00;;;;;5.74;95.34;99553.34;5019751;28;46652;-59
2021/11/28 05:04:22;;;;;;;;;1.25;1.25;;;;;5.76;94.74;99561.88;5019878;28;45356;-59
2021/11/28 05:06:48;;;;;;;;;0.50;0.50;;;;;5.75;95.20;99552.44;5019870;28;45480;-59
2021/11/28 05:09:14;;;;;;;;;4.25;1.25;;;;;5.77;93.67;99553.25;5020003;28;45518;-59
2021/11/28 05:11:39;;;;;;;;;0.00;0.00;;;;;5.78;93.95;99579.88;5019768;28;46689;-59
2021/11/28 05:14:05;;;;;;;;;0.00;0.00;;;;;5.77;94.59;99563.56;5020258;28;45312;-59
2021/11/28 05:16:30;;;;;;;;;1.00;1.00;;;;;5.74;94.27;99560.22;5019943;28;45246;-59
2021/11/28 05:18:56;;;;;;;;;1.00;0.50;;;;;5.75;94.51;99570.47;5020035;28;45530;-59
2021/11/28 05:21:22;;;;;;;;;2.00;0.00;;;;;5.73;93.76;99564.53;5019824;28;46107;-60
2021/11/28 05:23:47;;;;;;;;;2.00;0.25;;;;;5.75;94.63;99569.63;5019913;28;45271;-60
2021/11/28 05:26:12;;;;;;;;;0.75;0.75;;;;;5.75;94.43;99564.47;5019631;28;45272;-60
2021/11/28 05:28:38;;;;;;;;;0.25;0.25;;;;;5.76;94.33;99579.06;5019883;28;45222;-59
2021/11/28 05:31:03;;;;;;;;;1.00;0.00;;;;;5.71;94.24;99565.47;5019486;28;46293;-59
2021/11/28 05:33:29;;;;;;;;;1.00;0.00;;;;;5.70;95.11;99577.50;5019871;28;45337;-61
2021/11/28 05:35:54;;;;;;;;;1.75;1.00;;;;;5.70;95.41;99572.34;5019664;28;45426;-60
2021/11/28 05:38:20;;;;;;;;;3.50;1.50;;;;;5.69;96.10;99575.81;5019853;28;45285;-60
2021/11/28 05:40:45;;;;;;;;;2.00;0.25;;;;;5.69;96.20;99574.97;5019215;28;46259;-60
2021/11/28 05:43:10;;;;;;;;;1.00;1.00;;;;;5.68;96.72;99581.84;5019644;28;45400;-60
2021/11/28 05:45:36;;;;;;;;;4.75;1.25;;;;;5.66;96.89;99583.63;5018777;28;45880;-60
2021/11/28 05:48:02;;;;;;;;;1.00;1.00;;;;;5.65;96.92;99592.25;5002081;28;45427;-60
2021/11/28 05:50:29;;;;;;;;;1.00;1.00;;;;;5.60;96.08;99583.75;5022154;28;45977;-60
2021/11/28 05:52:55;;;;;;;;;2.00;1.00;;;;;5.62;96.67;99597.50;5027182;28;45170;-60
2021/11/28 05:55:21;;;;;;;;;3.75;0.50;;;;;5.62;97.02;99594.06;5019469;28;45340;-60
2021/11/28 05:57:46;;;;;;;;;0.50;0.25;;;;;5.61;97.56;99598.38;5019476;28;45551;-59
2021/11/28 06:00:15;;;;;;;;;1.25;1.00;;;;;5.58;97.67;99589.84;5018491;28;45254;-61
2021/11/28 06:02:40;;;;;;;;;1.00;1.00;;;;;5.58;97.61;99601.00;5012974;28;45766;-61
2021/11/28 06:05:08;;;;;;;;;0.25;0.00;;;;;5.55;97.73;99602.81;5018738;28;45269;-60
2021/11/28 06:07:33;;;;;;;;;1.50;1.50;;;;;5.49;99.10;99608.97;5015132;28;45466;-60
2021/11/28 06:09:58;;;;;;;;;1.00;1.00;;;;;5.43;98.63;99598.84;5021858;28;47213;-61
2021/11/28 06:12:24;;;;;;;;;1.00;1.00;;;;;5.47;98.66;99619.31;5022812;28;45206;-61
2021/11/28 06:14:49;;;;;;;;;1.00;0.00;;;;;5.44;98.43;99613.41;5022516;28;45268;-60
2021/11/28 06:17:15;;;;;;;;;1.00;0.50;;;;;5.45;98.02;99607.38;5022881;28;45218;-60
2021/11/28 06:19:40;;;;;;;;;4.00;0.00;;;;;5.41;99.03;99611.75;5022539;28;45163;-61
2021/11/28 06:22:08;;;;;;;;;4.00;1.00;;;;;5.44;98.85;99621.97;5022803;28;45258;-60
2021/11/28 06:24:33;;;;;;;;;0.50;0.50;;;;;5.48;99.11;99617.59;5022464;28;45241;-60
2021/11/28 06:26:59;;;;;;;;;1.00;1.00;;;;;5.49;98.26;99614.97;5022750;28;45385;-60
2021/11/28 06:29:24;;;;;;;;;0.00;0.00;;;;;5.51;98.60;99625.25;5022244;28;46217;-60
2021/11/28 06:31:50;;;;;;;;;0.50;0.50;;;;;5.53;98.82;99626.03;5022544;28;45666;-59
2021/11/28 06:34:15;;;;;;;;;2.50;1.25;;;;;5.56;97.68;99620.81;5022563;28;45443;-59
2021/11/28 06:36:41;;;;;;;;;1.50;1.00;;;;;5.55;97.83;99629.44;5022885;28;45356;-60
2021/11/28 06:39:06;;;;;;;;;2.00;1.00;;;;;5.54;97.62;99627.75;5022033;28;45368;-59
2021/11/28 06:41:32;;;;;;;;;1.25;1.25;;;;;5.52;97.73;99626.94;5022441;28;45358;-62
2021/11/28 06:43:57;;;;;;;;;2.00;1.00;;;;;5.54;97.26;99632.91;5021608;28;45344;-61
2021/11/28 06:46:24;;;;;;;;;1.25;1.25;;;;;5.55;97.71;99629.44;5021726;28;45356;-59
2021/11/28 06:48:49;;;;;;;;;1.25;1.25;;;;;5.57;96.91;99629.38;5004352;28;46411;-59
2021/11/28 06:51:15;;;;;;;;;2.50;0.00;;;;;5.58;97.81;99647.38;5031608;28;45185;-60
2021/11/28 06:53:41;;;;;;;;;1.50;1.00;;;;;5.57;96.93;99656.00;5005953;28;45190;-61
2021/11/28 06:56:06;;;;;;;;;2.00;1.00;;;;;5.57;96.07;99632.81;5022310;28;45494;-60
2021/11/28 06:58:32;;;;;;;;;1.00;1.00;;;;;5.59;96.61;99650.81;5004215;28;46268;-62
2021/11/28 07:00:58;;;;;;;;;1.00;0.75;;;;;5.60;96.21;99661.06;5021949;28;45231;-59
2021/11/28 07:03:23;;;;;;;;;1.25;1.25;;;;;5.62;96.74;99661.06;5022293;28;45353;-61
2021/11/28 07:05:48;;;;;;;;;2.25;0.00;;;;;5.63;96.01;99661.03;5022018;28;45560;-60
2021/11/28 07:08:14;;;;;;;;;0.00;0.00;;;;;5.65;96.30;99661.84;5021887;28;46456;-59
2021/11/28 07:10:39;;;;;;;;;0.50;0.50;;;;;5.64;95.85;99674.75;5022067;28;45428;-60
2021/11/28 07:13:06;;;;;;;;;1.00;1.00;;;;;5.62;94.66;99669.66;5021830;28;45305;-61
2021/11/28 07:15:32;;;;;;;;;1.00;0.00;;;;;5.63;95.25;99662.75;5021837;28;45538;-59
2021/11/28 07:17:58;;;;;;;;;1.00;1.00;;;;;5.65;95.88;99668.72;5020991;28;46507;-59
2021/11/28 07:20:25;;;;;;;;;1.25;1.00;;;;;5.65;94.14;99682.47;5021852;28;45454;-59
2021/11/28 07:22:50;;;;;;;;;2.00;1.00;;;;;5.65;94.38;99687.59;5028952;28;45535;-59
2021/11/28 07:25:17;;;;;;;;;1.25;0.00;;;;;5.67;95.10;99685.00;5029923;28;46296;-60
2021/11/28 07:27:43;;;;;;;;;1.00;0.25;;;;;5.68;94.05;99684.09;5031495;28;46228;-60
2021/11/28 07:30:09;;;;;;;;;7.25;1.75;;;;;5.71;95.30;99687.44;5029863;28;45411;-60
2021/11/28 07:32:34;;;;;;;;;1.00;1.00;;;;;5.73;94.56;99695.16;5026558;28;45579;-59
2021/11/28 07:34:59;;;;;;;;;2.00;1.00;;;;;5.72;94.70;99704.59;5020978;28;45435;-60
2021/11/28 07:37:25;;;;;;;;;1.00;1.00;;;;;5.67;94.32;99700.47;5020621;28;45409;-61
2021/11/28 07:39:50;;;;;;;;;1.50;1.50;;;;;5.66;92.44;99696.19;5029721;28;45550;-60
2021/11/28 07:42:16;;;;;;;;;0.00;0.00;;;;;5.66;93.25;99703.91;5026272;28;45499;-60
2021/11/28 07:44:41;;;;;;;;;1.50;0.00;;;;;5.64;93.31;99711.69;5020691;28;45517;-61
2021/11/28 07:47:06;;;;;;;;;1.00;1.00;;;;;5.57;93.05;99709.28;5020437;28;46003;-60
2021/11/28 07:49:33;;;;;;;;;0.00;0.00;;;;;5.61;92.77;99734.97;5021455;28;45257;-61
2021/11/28 07:51:58;;;;;;;;;1.75;0.25;;;;;5.62;92.89;99721.19;5031814;28;45435;-60
2021/11/28 07:54:23;;;;;;;;;0.25;0.25;;;;;5.60;92.16;99714.34;5021159;28;45513;-61
2021/11/28 07:56:49;;;;;;;;;1.75;0.00;;;;;5.63;92.19;99725.47;5020956;28;45188;-60
2021/11/28 07:59:15;;;;;;;;;2.00;0.00;;;;;5.65;92.65;99730.59;5003418;28;45424;-60
2021/11/28 08:01:40;;;;;;;;;0.00;0.00;;;;;5.70;92.21;99749.34;5020906;28;45280;-59
2021/11/28 08:04:06;;;;;;;;;1.00;1.00;;;;;5.69;91.92;99750.25;5022556;28;45140;-59
2021/11/28 08:06:31;;;;;;;;;1.00;1.00;;;;;5.70;93.31;99741.63;5029950;28;46082;-59
2021/11/28 08:08:57;;;;;;;;;1.00;1.00;;;;;5.73;92.88;99754.44;5029316;28;45230;-60
2021/11/28 08:11:22;;;;;;;;;0.50;0.50;;;;;5.72;92.11;99750.16;5029041;28;45711;-59
2021/11/28 08:13:48;;;;;;;;;0.00;0.00;;;;;5.73;91.75;99751.84;5030335;28;45388;-59
2021/11/28 08:16:14;;;;;;;;;0.00;0.00;;;;;5.76;92.84;99756.94;5030113;28;46291;-60
2021/11/28 08:18:39;;;;;;;;;1.25;1.25;;;;;5.76;92.02;99750.03;5029274;28;45281;-60
2021/11/28 08:21:05;;;;;;;;;0.25;0.25;;;;;5.74;91.45;99754.41;5027471;28;45342;-61
2021/11/28 08:23:30;;;;;;;;;1.00;1.00;;;;;5.74;91.37;99753.56;5026176;28;45517;-62
2021/11/28 08:25:56;;;;;;;;;2.75;2.00;;;;;5.81;92.40;99770.59;5027675;28;45298;-63
2021/11/28 08:28:21;;;;;;;;;1.00;1.00;;;;;5.79;91.16;99765.44;5017652;28;45347;-61
2021/11/28 08:30:47;;;;;;;;;2.00;0.00;;;;;5.85;92.21;99773.94;5013519;28;45721;-60
2021/11/28 08:33:12;;;;;;;;;0.00;0.00;;;;;5.84;90.32;99762.78;5008296;28;45389;-60
2021/11/28 08:35:38;;;;;;;;;0.00;0.00;;;;;5.86;90.92;99770.47;5024091;28;46248;-60
2021/11/28 08:38:04;;;;;;;;;5.00;1.75;;;;;5.91;91.50;99774.66;5019124;28;45295;-58
2021/11/28 08:40:30;;;;;;;;;1.00;1.00;;;;;5.95;90.66;99778.00;4987565;28;45472;-59
2021/11/28 08:42:55;;;;;;;;;0.75;0.75;;;;;5.93;90.70;99779.78;5007710;28;45391;-58
2021/11/28 08:45:21;;;;;;;;;1.50;1.50;;;;;5.93;90.50;99774.63;5008792;28;46197;-61
2021/11/28 08:47:47;;;;;;;;;3.00;1.50;;;;;5.95;90.38;99778.84;5014589;28;45450;-61
2021/11/28 08:50:14;;;;;;;;;1.00;1.00;;;;;5.99;90.54;99775.31;5019927;28;45305;-58
2021/11/28 08:52:40;;;;;;;;;1.00;1.00;;;;;6.02;90.67;99790.75;5030263;28;45537;-59
2021/11/28 08:55:07;;;;;;;;;2.00;2.00;;;;;5.98;90.59;99780.50;5025260;28;45919;-59
2021/11/28 08:57:32;;;;;;;;;3.25;2.00;;;;;5.99;91.12;99795.09;5020303;28;45364;-59
